METAR Data
IDs: Format: Raw Decoded Include TAF

Data at: 0108 UTC 06 Dec 2019

KSMS 060055Z AUTO 00000KT 10SM CLR 05/01 A3019 RMK AO2
KSMS 060035Z AUTO 00000KT 10SM CLR 06/01 A3019 RMK AO2
KSMS 060015Z AUTO 00000KT 10SM CLR 06/01 A3018 RMK AO2
KSMS 052355Z AUTO 00000KT 10SM CLR 06/00 A3017 RMK AO2
KSMS 052335Z AUTO 00000KT 10SM CLR 07/00 A3016 RMK AO2
KSMS 052315Z AUTO 00000KT 10SM CLR 07/01 A3016 RMK AO2
KSMS 052255Z AUTO 00000KT 10SM -DZ CLR 09/00 A3014 RMK AO2
KSMS 052235Z AUTO 00000KT 7SM -DZ CLR 09/01 A3013 RMK AO2
KSMS 052215Z AUTO 00000KT 10SM -DZ CLR 12/M01 A3013 RMK AO2
KSMS 052155Z AUTO 00000KT 10SM -DZ CLR 15/M04 A3012 RMK AO2
KSMS 052135Z AUTO 00000KT 10SM -DZ CLR 17/M06 A3011 RMK AO2
KSMS 052115Z AUTO 31005KT 10SM -DZ CLR 17/M07 A3011 RMK AO2
KSMS 052055Z AUTO 31004G10KT 10SM -DZ CLR 18/M08 A3010 RMK AO2
KSMS 052035Z AUTO 32006KT 10SM CLR 18/M07 A3010 RMK AO2
KSMS 052015Z AUTO 28005KT 10SM CLR 18/M06 A3009 RMK AO2
KSMS 051955Z AUTO 32007KT 10SM CLR 18/M07 A3009 RMK AO2
KSMS 051935Z AUTO 00000KT 10SM CLR 18/M04 A3008 RMK AO2
KSMS 051915Z AUTO 29005KT 10SM CLR 18/M04 A3008 RMK AO2
KSMS 051855Z AUTO 00000KT 10SM CLR 18/M03 A3009 RMK AO2
KSMS 051835Z AUTO 29005KT 10SM CLR 18/M03 A3009 RMK AO2
KSMS 051815Z AUTO 27004KT 10SM CLR 17/M03 A3009 RMK AO2
KSMS 051755Z AUTO 00000KT 10SM CLR 17/M04 A3009 RMK AO2
KSMS 051735Z AUTO 00000KT 10SM CLR 17/M04 A3010 RMK AO2
KSMS 051715Z AUTO 00000KT 10SM CLR 17/M03 A3010 RMK AO2
KSMS 051655Z AUTO 00000KT 10SM CLR 17/M01 A3011 RMK AO2
KSMS 051635Z AUTO 27005KT 10SM CLR 16/M01 A3012 RMK AO2
KSMS 051615Z AUTO VRB03KT 10SM CLR 15/M01 A3012 RMK AO2
KSMS 051555Z AUTO 00000KT 10SM CLR 15/M01 A3012 RMK AO2
KSMS 051535Z AUTO 00000KT 10SM CLR 14/M01 A3012 RMK AO2
KSMS 051515Z AUTO 00000KT 10SM CLR 13/M00 A3011 RMK AO2
KSMS 051455Z AUTO 00000KT 10SM CLR 12/M00 A3010 RMK AO2
KSMS 051435Z AUTO VRB04KT 10SM CLR 12/M00 A3009 RMK AO2
KSMS 051415Z AUTO 00000KT 10SM CLR 10/00 A3008 RMK AO2
KSMS 051355Z AUTO 00000KT 10SM CLR 09/00 A3007 RMK AO2
KSMS 051335Z AUTO 00000KT 10SM CLR 08/00 A3006 RMK AO2
KSMS 051315Z AUTO 00000KT 10SM CLR 09/M00 A3005 RMK AO2
KSMS 051255Z AUTO 00000KT 10SM CLR 08/M00 A3004 RMK AO2
KSMS 051235Z AUTO 00000KT 10SM CLR 07/M01 A3003 RMK AO2
KSMS 051215Z AUTO 30005KT 10SM CLR 08/M01 A3002 RMK AO2
KSMS 051155Z AUTO 30006KT 10SM -DZ CLR 08/M01 A3001 RMK AO2
KSMS 051135Z AUTO 33007KT 10SM CLR 07/M00 A3000 RMK AO2
KSMS 051115Z AUTO 30004KT 10SM CLR 07/M00 A2999 RMK AO2
KSMS 051055Z AUTO 30005KT 10SM CLR 07/M00 A2999 RMK AO2
KSMS 051035Z AUTO 27005KT 10SM CLR 06/M00 A2998 RMK AO2
KSMS 051015Z AUTO 27005KT 10SM CLR 05/M00 A2996 RMK AO2
KSMS 050955Z AUTO 00000KT 10SM CLR 07/M00 A2995 RMK AO2
KSMS 050935Z AUTO 26004KT 10SM CLR 07/M00 A2994 RMK AO2
KSMS 050915Z AUTO 26004KT 10SM CLR 08/M00 A2994 RMK AO2
KSMS 050855Z AUTO 25004KT 10SM CLR 08/M00 A2993 RMK AO2
KSMS 050835Z AUTO 00000KT 10SM CLR 08/M00 A2992 RMK AO2
KSMS 050815Z AUTO 25004KT 10SM CLR 08/M00 A2990 RMK AO2
KSMS 050755Z AUTO 25004KT 10SM CLR 07/00 A2990 RMK AO2
KSMS 050735Z AUTO 00000KT 10SM CLR 07/00 A2989 RMK AO2
KSMS 050715Z AUTO 00000KT 10SM CLR 08/M00 A2989 RMK AO2
KSMS 050655Z AUTO 00000KT 10SM CLR 07/M00 A2988 RMK AO2
KSMS 050635Z AUTO 00000KT 10SM CLR 08/00 A2988 RMK AO2
KSMS 050615Z AUTO 24004KT 10SM CLR 07/00 A2987 RMK AO2
KSMS 050555Z AUTO 24004KT 10SM CLR 07/00 A2987 RMK AO2
KSMS 050535Z AUTO 00000KT 10SM CLR 08/00 A2988 RMK AO2
KSMS 050515Z AUTO 25004KT 10SM CLR 08/00 A2988 RMK AO2
KSMS 050455Z AUTO 23005KT 10SM CLR 07/00 A2987 RMK AO2
KSMS 050435Z AUTO 24006KT 10SM CLR 08/00 A2987 RMK AO2
KSMS 050415Z AUTO 24004KT 10SM CLR 07/00 A2986 RMK AO2
KSMS 050355Z AUTO 23006KT 10SM CLR 08/00 A2986 RMK AO2
KSMS 050335Z AUTO 24004KT 10SM CLR 10/00 A2986 RMK AO2
KSMS 050315Z AUTO 24005KT 10SM CLR 10/00 A2986 RMK AO2
KSMS 050255Z AUTO 24005KT 10SM CLR 10/01 A2985 RMK AO2
KSMS 050235Z AUTO 24005KT 10SM CLR 09/01 A2985 RMK AO2
KSMS 050215Z AUTO 23005KT 10SM CLR 08/01 A2984 RMK AO2
KSMS 050155Z AUTO 23004KT 10SM CLR 08/01 A2984 RMK AO2
KSMS 050135Z AUTO 22006KT 10SM CLR 08/01 A2983 RMK AO2
KSMS 050115Z AUTO 21006KT 10SM CLR 08/01 A2983 RMK AO2
KSMS 050055Z AUTO 22006KT 10SM CLR 07/01 A2982 RMK AO2
KSMS 050015Z AUTO 22005KT 10SM CLR 09/01 A2982 RMK AO2
KSMS 042355Z AUTO 23005KT 10SM CLR 09/01 A2981 RMK AO2
KSMS 042335Z AUTO 21004KT 10SM CLR 09/01 A2981 RMK AO2
KSMS 042315Z AUTO 23004KT 10SM CLR 10/01 A2981 RMK AO2
KSMS 042255Z AUTO 00000KT 10SM CLR 11/01 A2980 RMK AO2
KSMS 042235Z AUTO 00000KT 10SM CLR 12/00 A2979 RMK AO2
KSMS 042215Z AUTO 24003KT 10SM CLR 13/00 A2978 RMK AO2
KSMS 042155Z AUTO 25004KT 10SM CLR 14/M00 A2978 RMK AO2
KSMS 042135Z AUTO 26006KT 10SM CLR 15/M00 A2978 RMK AO2
KSMS 042115Z AUTO 25007G13KT 10SM CLR 15/M01 A2977 RMK AO2
KSMS 042055Z AUTO 26006G16KT 10SM CLR 16/M01 A2977 RMK AO2
KSMS 042035Z AUTO 24007G14KT 10SM CLR 16/M01 A2977 RMK AO2
KSMS 042015Z AUTO 26008G16KT 10SM CLR 16/M02 A2977 RMK AO2
KSMS 041955Z AUTO 27012G17KT 10SM CLR 16/M02 A2976 RMK AO2
KSMS 041935Z AUTO 25007G14KT 10SM CLR 16/M02 A2976 RMK AO2
KSMS 041915Z AUTO 24010KT 10SM CLR 16/M02 A2976 RMK AO2
KSMS 041855Z AUTO 24009G17KT 10SM CLR 16/M02 A2976 RMK AO2
KSMS 041835Z AUTO 24008KT 10SM CLR 15/M02 A2976 RMK AO2
KSMS 041815Z AUTO VRB06G14KT 10SM CLR 15/M01 A2976 RMK AO2
KSMS 041755Z AUTO 23008KT 10SM CLR 15/M01 A2977 RMK AO2
KSMS 041735Z AUTO 22006KT 10SM CLR 14/M02 A2978 RMK AO2
KSMS 041715Z AUTO 23007KT 10SM CLR 13/M02 A2979 RMK AO2
KSMS 041655Z AUTO VRB04KT 10SM CLR 13/M01 A2980 RMK AO2
KSMS 041635Z AUTO 21006KT 10SM CLR 12/00 A2983 RMK AO2
KSMS 041615Z AUTO 00000KT 10SM CLR 12/00 A2983 RMK AO2
KSMS 041555Z AUTO 00000KT 10SM CLR 11/00 A2984 RMK AO2
KSMS 041535Z AUTO 23006KT 10SM CLR 10/00 A2985 RMK AO2
KSMS 041515Z AUTO 00000KT 10SM CLR 10/01 A2986 RMK AO2
KSMS 041455Z AUTO 00000KT 10SM CLR 09/00 A2985 RMK AO2
KSMS 041435Z AUTO 29005KT 10SM CLR 08/01 A2986 RMK AO2
KSMS 041415Z AUTO 27006KT 10SM CLR 07/02 A2986 RMK AO2
KSMS 041355Z AUTO 26005KT 9SM CLR 06/02 A2984 RMK AO2
KSMS 041335Z AUTO 00000KT 9SM CLR 05/02 A2982 RMK AO2
KSMS 041315Z AUTO 22004KT 9SM CLR 03/02 A2982 RMK AO2